CheckWX is a tool to help pilots better visualize weather data.  It is not intended as a substitute for an official pre-flight weather briefing.

23:20:09 UTC

KADH METAR
Ada Regional Airport
Ada, Oklahoma, USA
Current

25 mins ago

KADH 052255Z AUTO 14010KT 10SM SCT028 19/12 A3001 RMK AO2
Observed
Apr-5 @ 22:55 UTC
Wind
  • 140° at 10 KTS
Visibility
Flight Rules
VFR
Cloud Levels
  • Scattered at 2,800' AGL
Temperature
19°C / 66°F
Dewpoint
12°C / 54°F
Humidity
64%
Altimeter
30.01" Hg
Pressure
1016.22 hPa
Previous

45 mins ago

KADH 052235Z AUTO 15009KT 10SM SCT030 SCT055 19/12 A3001 RMK AO2
Observed
Apr-5 @ 22:35 UTC
Wind
  • 150° at 9 KTS
Visibility
Flight Rules
VFR
Cloud Levels
  • Scattered at 3,000' AGL
  • Scattered at 5,500' AGL
Temperature
19°C / 66°F
Dewpoint
12°C / 54°F
Humidity
64%
Altimeter
30.01" Hg
Pressure
1016.22 hPa
Previous

1 hour ago

KADH 052215Z AUTO 16009KT 10SM SCT030 20/12 A3001 RMK AO2
Observed
Apr-5 @ 22:15 UTC
Wind
  • 160° at 9 KTS
Visibility
Flight Rules
VFR
Cloud Levels
  • Scattered at 3,000' AGL
Temperature
20°C / 68°F
Dewpoint
12°C / 54°F
Humidity
60%
Altimeter
30.01" Hg
Pressure
1016.22 hPa